Time;durP1;ratioP1;P1;durP2;ratioP2;P2;SDS_P1;SDS_P2;PMS_P1;PMS_P2;Temp;Humidity;BMP_temperature;BMP_pressure;BME280_temperature;BME280_humidity;BME280_pressure;Samples;Min_cycle;Max_cycle;Signal;HPM_P1;HPM_P2
2022/01/12 00:01:39;;;;;;;28.98;11.15;;;;;;;;;;5004803;28;20042;-84
2022/01/12 00:04:07;;;;;;;19.08;9.90;;;;;;;;;;5004353;28;20033;-85
2022/01/12 00:06:33;;;;;;;14.10;8.77;;;3.70;99.90;;;;;;5020032;28;20030;-85
2022/01/12 00:09:05;;;;;;;14.68;7.40;;;3.50;99.90;;;;;;5022812;28;20042;-85
2022/01/12 00:11:30;;;;;;;13.73;8.07;;;3.70;99.90;;;;;;5005571;28;20037;-84
2022/01/12 00:13:56;;;;;;;12.25;7.28;;;6.10;99.90;;;;;;5007350;28;20105;-84
2022/01/12 00:16:22;;;;;;;13.27;7.15;;;;;;;;;;5001250;28;20141;-82
2022/01/12 00:18:48;;;;;;;13.05;6.93;;;3.60;99.90;;;;;;5004702;28;20029;-86
2022/01/12 00:21:14;;;;;;;11.95;6.18;;;3.70;99.90;;;;;;5006101;28;20112;-88
2022/01/12 00:23:40;;;;;;;12.43;6.35;;;3.60;99.90;;;;;;5001653;28;20620;-85
2022/01/12 00:26:11;;;;;;;11.35;6.10;;;6.00;99.90;;;;;;5003846;28;20026;-85
2022/01/12 00:34:09;;;;;;;13.80;7.60;;;3.60;99.90;;;;;;5021756;28;20095;-87
2022/01/12 00:36:35;;;;;;;12.82;7.63;;;3.60;99.90;;;;;;5003347;28;20026;-84
2022/01/12 00:39:03;;;;;;;13.48;8.32;;;3.60;99.90;;;;;;5005173;28;20029;-88
2022/01/12 00:41:29;;;;;;;11.52;7.50;;;3.60;99.90;;;;;;5006502;28;20029;-86
2022/01/12 00:43:59;;;;;;;11.77;7.68;;;3.60;99.90;;;;;;5001435;28;20025;-82
2022/01/12 00:46:34;;;;;;;11.33;6.60;;;3.60;99.90;;;;;;5002645;28;20068;-87
2022/01/12 00:49:00;;;;;;;13.48;8.05;;;3.50;99.90;;;;;;5021603;28;20032;-85
2022/01/12 00:51:27;;;;;;;15.32;8.40;;;4.00;99.90;;;;;;5002214;28;20089;-87
2022/01/12 00:53:55;;;;;;;15.35;8.45;;;3.50;99.90;;;;;;5001162;28;20030;-86
2022/01/12 00:56:24;;;;;;;13.30;7.38;;;3.50;99.90;;;;;;5002665;28;20125;-86
2022/01/12 00:58:53;;;;;;;13.10;7.75;;;3.40;99.90;;;;;;5001079;28;20041;-84
2022/01/12 01:01:21;;;;;;;10.73;6.78;;;3.50;99.90;;;;;;5003365;28;20038;-85
2022/01/12 01:03:48;;;;;;;10.40;6.25;;;3.50;99.90;;;;;;5019342;28;20049;-85
2022/01/12 01:06:14;;;;;;;11.05;6.53;;;3.20;99.90;;;;;;5004529;28;20026;-87
2022/01/12 01:08:40;;;;;;;14.05;7.30;;;5.10;99.90;;;;;;4999066;28;20064;-84
2022/01/12 01:11:06;;;;;;;9.90;6.00;;;3.50;99.90;;;;;;5008237;28;20030;-87
2022/01/12 01:13:43;;;;;;;13.73;6.75;;;3.40;99.90;;;;;;5002675;28;20403;-87
2022/01/12 01:27:06;;;;;;;11.82;7.03;;;3.30;99.90;;;;;;5017992;28;20152;-84
2022/01/12 01:29:32;;;;;;;11.93;7.18;;;3.20;99.90;;;;;;5010210;28;20507;-84
2022/01/12 01:31:58;;;;;;;11.88;7.40;;;3.10;99.90;;;;;;5006898;28;20061;-86
2022/01/12 01:34:25;;;;;;;13.77;8.30;;;4.90;99.90;;;;;;5006225;28;20038;-86
2022/01/12 01:36:54;;;;;;;12.02;6.70;;;3.00;99.90;;;;;;5004361;28;20566;-83
2022/01/12 01:39:23;;;;;;;13.40;7.22;;;3.00;99.90;;;;;;5005209;28;20041;-83
2022/01/12 01:42:04;;;;;;;14.00;8.23;;;4.80;99.90;;;;;;5011900;28;20030;-85
2022/01/12 01:55:11;;;;;;;13.43;7.07;;;2.60;99.90;;;;;;5019581;28;20051;-82
2022/01/12 01:57:40;;;;;;;12.30;6.95;;;2.50;99.90;;;;;;5002153;28;20054;-84
2022/01/12 02:00:13;;;;;;;15.30;6.90;;;2.50;99.90;;;;;;5000473;28;20036;-84
2022/01/12 02:02:39;;;;;;;14.10;6.70;;;2.40;99.90;;;;;;5015047;28;20041;-83
2022/01/12 02:05:05;;;;;;;10.63;6.20;;;2.40;99.90;;;;;;5006173;28;20041;-84
2022/01/12 02:07:33;;;;;;;13.48;7.57;;;2.40;99.90;;;;;;5002676;28;20025;-84
2022/01/12 02:09:59;;;;;;;10.20;6.57;;;;;;;;;;4999925;28;20033;-83
2022/01/12 02:12:27;;;;;;;15.27;6.43;;;2.30;99.90;;;;;;5001894;28;20048;-83
2022/01/12 02:14:54;;;;;;;10.55;6.00;;;;;;;;;;5007080;28;20064;-84
2022/01/12 02:17:24;;;;;;;15.32;7.40;;;2.20;99.90;;;;;;5025416;28;20045;-84
2022/01/12 02:35:10;;;;;;;12.80;7.15;;;2.10;99.90;;;;;;5000940;28;20472;-82
2022/01/12 02:36:30;;;;;;;11.85;6.40;;;2.10;99.90;;;;;;5015798;28;20088;-85
2022/01/12 02:41:42;;;;;;;11.77;5.97;;;2.00;99.90;;;;;;5018801;28;20098;-83
2022/01/12 02:54:44;;;;;;;14.00;7.47;;;;;;;;;;5017849;28;20077;-81
2022/01/12 02:57:10;;;;;;;14.88;8.75;;;1.80;99.90;;;;;;4999402;28;20026;-82
2022/01/12 02:59:37;;;;;;;14.52;7.88;;;3.70;99.90;;;;;;5000274;28;20057;-82
2022/01/12 03:04:29;;;;;;;11.95;6.97;;;1.70;99.90;;;;;;5018389;28;20112;-80
2022/01/12 03:07:05;;;;;;;17.25;8.27;;;1.70;99.90;;;;;;5005284;28;20452;-81
2022/01/12 03:09:31;;;;;;;14.35;7.25;;;;;;;;;;5002248;28;20021;-84
2022/01/12 03:11:57;;;;;;;12.13;6.85;;;1.70;99.90;;;;;;4999609;28;20037;-84
2022/01/12 03:14:23;;;;;;;11.25;6.22;;;1.70;99.90;;;;;;4999202;28;20037;-80
2022/01/12 03:16:48;;;;;;;14.23;7.00;;;1.70;99.90;;;;;;4996459;28;20097;-81
2022/01/12 03:19:14;;;;;;;15.32;7.30;;;1.40;99.90;;;;;;5003456;28;20048;-82
2022/01/12 03:24:18;;;;;;;12.07;7.47;;;1.50;99.90;;;;;;5938559;22;20050;-81
2022/01/12 03:26:43;;;;;;;16.38;8.38;;;1.50;99.90;;;;;;4988334;28;20037;-81
2022/01/12 03:29:10;;;;;;;13.10;7.72;;;;;;;;;;5014989;28;20073;-82
2022/01/12 03:31:36;;;;;;;16.55;8.05;;;;;;;;;;5017821;28;20026;-81
2022/01/12 03:34:20;;;;;;;12.50;7.22;;;1.40;99.90;;;;;;4990451;28;20399;-83
2022/01/12 03:39:30;;;;;;;12.40;7.45;;;3.10;99.90;;;;;;4998731;28;20045;-82
2022/01/12 03:41:56;;;;;;;17.55;7.85;;;;;;;;;;4995074;28;20491;-81
2022/01/12 03:44:22;;;;;;;14.23;6.93;;;1.40;99.90;;;;;;4994555;28;20179;-83
2022/01/12 03:46:53;;;;;;;14.13;7.30;;;1.40;99.90;;;;;;4983131;28;20026;-81
2022/01/12 03:49:19;;;;;;;;;;;1.40;99.90;;;;;;4992789;28;20027;-82
2022/01/12 03:51:45;;;;;;;14.70;7.35;;;4.30;99.90;;;;;;4997882;28;19917;-81
2022/01/12 03:54:11;;;;;;;13.63;7.00;;;1.40;99.90;;;;;;4979831;28;20487;-80
2022/01/12 03:56:37;;;;;;;17.92;7.88;;;1.40;99.90;;;;;;4975912;28;20118;-82
2022/01/12 03:59:04;;;;;;;13.73;7.90;;;1.30;99.90;;;;;;4998588;28;20030;-82
2022/01/12 04:01:30;;;;;;;14.55;8.02;;;1.30;99.90;;;;;;4982875;28;20113;-82
2022/01/12 04:04:21;;;;;;;15.63;8.60;;;1.30;99.90;;;;;;4979800;28;20057;-82
2022/01/12 04:09:28;;;;;;;14.52;7.85;;;1.20;99.90;;;;;;4994129;28;20045;-82
2022/01/12 04:11:53;;;;;;;15.43;8.52;;;1.20;99.90;;;;;;4980894;28;20034;-82
2022/01/12 04:14:19;;;;;;;16.35;8.40;;;1.20;99.90;;;;;;4979525;28;20132;-82
2022/01/12 04:16:45;;;;;;;13.90;8.52;;;1.20;99.90;;;;;;4982961;28;20049;-82
2022/01/12 04:19:11;;;;;;;15.90;8.77;;;1.20;99.90;;;;;;4981381;28;20208;-82
2022/01/12 04:21:43;;;;;;;17.00;8.43;;;1.20;99.90;;;;;;4981373;28;20030;-82
2022/01/12 04:24:09;;;;;;;15.55;8.43;;;1.20;99.90;;;;;;4978597;28;20104;-82
2022/01/12 04:26:35;;;;;;;17.52;8.73;;;1.10;99.90;;;;;;4982419;28;20034;-82
2022/01/12 04:29:01;;;;;;;15.45;7.97;;;1.10;99.90;;;;;;4978044;28;20030;-82
2022/01/12 04:31:26;;;;;;;19.77;8.88;;;1.10;99.90;;;;;;4976893;28;20053;-82
2022/01/12 04:33:55;;;;;;;14.73;7.60;;;1.10;99.90;;;;;;4969528;28;20041;-82
2022/01/12 04:36:20;;;;;;;14.77;8.82;;;0.60;99.90;;;;;;4975714;28;20394;-82
2022/01/12 04:38:46;;;;;;;17.38;8.38;;;1.10;99.90;;;;;;4978068;28;20039;-82
2022/01/12 04:41:13;;;;;;;19.15;9.05;;;1.10;99.90;;;;;;4974563;28;20034;-84
2022/01/12 04:43:41;;;;;;;15.32;8.90;;;1.10;99.90;;;;;;4983546;28;20030;-82
2022/01/12 04:46:23;;;;;;;17.88;8.75;;;1.10;99.90;;;;;;4995593;28;20030;-83
2022/01/12 04:51:17;;;;;;;17.10;9.02;;;1.00;99.90;;;;;;4998079;28;20038;-81
2022/01/12 04:53:46;;;;;;;17.38;9.52;;;1.00;99.90;;;;;;4996059;28;20582;-83
2022/01/12 04:56:11;;;;;;;18.20;9.45;;;1.00;99.90;;;;;;4978314;28;20106;-81
2022/01/12 04:58:37;;;;;;;18.02;9.10;;;1.10;99.90;;;;;;4997815;28;20058;-83
2022/01/12 05:01:13;;;;;;;15.50;8.25;;;;;;;;;;4997393;28;20038;-83
2022/01/12 05:09:07;;;;;;;14.50;8.77;;;1.10;99.90;;;;;;4999012;28;20057;-80
2022/01/12 05:14:19;;;;;;;16.50;8.35;;;1.00;99.90;;;;;;4998038;28;19952;-82
2022/01/12 05:16:44;;;;;;;15.27;8.48;;;1.00;99.90;;;;;;4981475;28;20025;-81
2022/01/12 05:19:10;;;;;;;15.88;8.32;;;1.00;99.90;;;;;;4984701;28;20060;-82
2022/01/12 05:21:36;;;;;;;17.77;8.35;;;1.00;99.90;;;;;;4998906;28;20035;-80
2022/01/12 05:24:06;;;;;;;16.55;8.35;;;1.00;99.90;;;;;;4982940;28;20027;-80
2022/01/12 05:26:32;;;;;;;16.47;8.73;;;1.00;99.90;;;;;;4996189;28;20030;-79
2022/01/12 05:28:58;;;;;;;15.23;8.52;;;1.00;99.90;;;;;;4979984;28;20026;-81
2022/01/12 05:31:24;;;;;;;15.48;8.23;;;0.90;99.90;;;;;;4980347;28;20026;-81
2022/01/12 05:33:50;;;;;;;15.93;8.70;;;1.00;99.90;;;;;;4973768;28;20578;-82
2022/01/12 05:36:17;;;;;;;14.57;8.05;;;1.00;99.90;;;;;;4980215;28;20025;-80
2022/01/12 05:38:44;;;;;;;16.30;8.48;;;1.00;99.90;;;;;;4973350;28;20061;-81
2022/01/12 05:41:10;;;;;;;15.98;8.90;;;1.10;99.90;;;;;;4994079;28;20030;-81
2022/01/12 05:43:37;;;;;;;17.05;8.68;;;1.10;99.90;;;;;;4994557;28;20022;-81
2022/01/12 05:46:10;;;;;;;17.27;8.63;;;0.90;99.90;;;;;;4974424;28;20614;-81
2022/01/12 05:51:22;;;;;;;14.07;8.70;;;1.00;99.90;;;;;;4993975;28;20033;-82
2022/01/12 05:53:49;;;;;;;13.30;8.38;;;1.00;99.90;;;;;;4976177;28;20537;-81
2022/01/12 05:56:14;;;;;;;16.23;8.45;;;1.00;99.90;;;;;;4979754;28;20133;-81
2022/01/12 05:58:40;;;;;;;16.33;9.02;;;0.90;99.90;;;;;;4978737;28;20046;-81
2022/01/12 06:01:06;;;;;;;17.38;8.95;;;0.90;99.90;;;;;;4991386;28;20034;-80
2022/01/12 06:03:32;;;;;;;16.10;9.43;;;0.80;99.90;;;;;;4991904;28;20014;-83
2022/01/12 06:05:58;;;;;;;14.55;8.50;;;0.80;99.90;;;;;;4991762;28;20022;-81
2022/01/12 06:08:23;;;;;;;17.05;9.15;;;0.80;99.90;;;;;;4997034;28;20032;-80
2022/01/12 06:10:49;;;;;;;14.55;7.88;;;0.70;99.90;;;;;;4976568;28;20057;-82
2022/01/12 06:13:14;;;;;;;15.48;8.48;;;0.70;99.90;;;;;;4974702;28;20076;-85
2022/01/12 06:15:42;;;;;;;15.70;8.98;;;0.70;99.90;;;;;;4990605;28;20594;-81
2022/01/12 06:18:08;;;;;;;16.33;8.88;;;;;;;;;;4976483;28;20023;-81
2022/01/12 06:20:37;;;;;;;16.67;9.52;;;0.70;99.90;;;;;;4996251;28;20035;-84
2022/01/12 06:23:05;;;;;;;18.65;10.10;;;0.70;99.90;;;;;;4972757;28;20540;-82
2022/01/12 06:25:31;;;;;;;16.55;9.02;;;0.70;99.90;;;;;;4991804;28;20030;-81
2022/01/12 06:28:10;;;;;;;19.30;9.50;;;0.70;99.90;;;;;;4980089;28;20431;-81
2022/01/12 06:33:20;;;;;;;16.98;9.75;;;0.60;99.90;;;;;;4993968;28;20383;-81
2022/01/12 06:35:45;;;;;;;16.23;9.35;;;0.60;99.90;;;;;;4976098;28;20283;-82
2022/01/12 06:38:11;;;;;;;18.83;9.27;;;0.60;99.90;;;;;;4981881;28;20019;-81
2022/01/12 06:40:37;;;;;;;16.33;9.23;;;0.60;99.90;;;;;;4977282;28;20080;-80
2022/01/12 06:43:02;;;;;;;18.55;9.57;;;0.60;99.90;;;;;;4976839;28;20018;-80
2022/01/12 06:45:28;;;;;;;14.88;9.05;;;0.60;99.90;;;;;;4971464;28;20209;-85
2022/01/12 06:47:54;;;;;;;18.33;9.65;;;0.60;99.90;;;;;;4978973;28;21385;-80
2022/01/12 06:50:19;;;;;;;17.70;9.85;;;0.60;99.90;;;;;;4997935;28;20014;-81
2022/01/12 06:52:46;;;;;;;15.65;8.07;;;0.60;99.90;;;;;;4981212;28;20069;-81
2022/01/12 06:55:12;;;;;;;18.50;9.63;;;0.60;99.90;;;;;;4997564;28;20033;-81
2022/01/12 06:57:37;;;;;;;16.80;9.75;;;0.60;99.90;;;;;;4983985;28;20026;-83
2022/01/12 07:00:05;;;;;;;18.40;9.55;;;0.60;99.90;;;;;;4999634;28;20117;-77
2022/01/12 07:02:31;;;;;;;17.95;9.60;;;0.60;99.90;;;;;;4984594;28;20026;-80
2022/01/12 07:04:56;;;;;;;20.80;10.23;;;0.70;99.90;;;;;;5003492;28;20034;-80
2022/01/12 07:07:23;;;;;;;18.38;10.15;;;0.60;99.90;;;;;;4984391;28;20483;-82
2022/01/12 07:09:49;;;;;;;18.33;9.70;;;0.60;99.90;;;;;;4984184;28;20034;-81
2022/01/12 07:12:16;;;;;;;19.92;10.35;;;0.60;99.90;;;;;;5003198;28;20026;-81
2022/01/12 07:14:42;;;;;;;21.17;10.68;;;0.70;99.90;;;;;;4983378;28;20038;-80
2022/01/12 07:17:10;;;;;;;18.38;10.10;;;0.70;99.90;;;;;;4982006;28;20062;-81
2022/01/12 07:19:36;;;;;;;20.05;10.50;;;0.70;99.90;;;;;;4980463;28;20030;-79
2022/01/12 07:22:02;;;;;;;18.55;11.00;;;0.70;99.90;;;;;;4992254;28;20042;-80
2022/01/12 07:24:27;;;;;;;17.35;9.93;;;0.60;99.90;;;;;;4991177;28;20065;-79
2022/01/12 07:26:53;;;;;;;24.23;11.52;;;0.70;99.90;;;;;;4997541;28;20038;-80
2022/01/12 07:29:21;;;;;;;20.70;10.60;;;0.70;99.90;;;;;;4982423;28;20029;-80
2022/01/12 07:31:48;;;;;;;19.67;10.40;;;1.30;99.90;;;;;;4979816;28;20037;-83
2022/01/12 07:34:16;;;;;;;19.13;10.38;;;0.70;99.90;;;;;;4997829;28;20175;-84
2022/01/12 07:36:43;;;;;;;19.33;10.88;;;1.80;99.90;;;;;;4998431;28;20046;-80
2022/01/12 07:39:09;;;;;;;21.95;11.05;;;0.80;99.90;;;;;;4998340;28;20023;-82
2022/01/12 07:41:35;;;;;;;21.73;11.23;;;0.80;99.90;;;;;;4983105;28;20088;-81
2022/01/12 07:44:01;;;;;;;19.98;10.77;;;0.80;99.90;;;;;;4997036;28;20014;-81
2022/01/12 07:46:27;;;;;;;21.88;10.27;;;0.90;99.90;;;;;;4982580;28;20052;-81
2022/01/12 07:48:52;;;;;;;22.23;11.52;;;0.90;99.90;;;;;;5000610;28;20034;-81
2022/01/12 07:51:21;;;;;;;18.70;10.02;;;0.80;99.90;;;;;;4983646;28;20510;-82
2022/01/12 07:53:47;;;;;;;19.40;10.05;;;0.80;99.90;;;;;;4984576;28;20030;-80
2022/01/12 07:56:15;;;;;;;20.02;9.82;;;0.70;99.90;;;;;;5005820;28;20494;-80
2022/01/12 07:58:40;;;;;;;22.10;10.77;;;0.80;99.90;;;;;;4979498;28;20034;-85
2022/01/12 08:01:07;;;;;;;19.83;11.05;;;0.80;99.90;;;;;;4979693;28;20041;-81
2022/01/12 08:03:33;;;;;;;18.65;10.63;;;0.90;99.90;;;;;;4984173;28;20022;-83
2022/01/12 08:06:00;;;;;;;18.48;10.43;;;0.90;99.90;;;;;;4982606;28;20019;-82
2022/01/12 08:08:25;;;;;;;21.27;10.38;;;1.20;99.90;;;;;;4981954;28;20030;-81
2022/01/12 08:10:51;;;;;;;22.23;10.93;;;0.90;99.90;;;;;;4983142;28;20030;-81
2022/01/12 08:13:17;;;;;;;19.45;10.05;;;1.00;99.90;;;;;;4982164;28;20153;-82
2022/01/12 08:15:43;;;;;;;18.88;9.98;;;1.00;99.90;;;;;;4980726;28;20037;-80
2022/01/12 08:18:09;;;;;;;18.35;9.98;;;1.00;99.90;;;;;;4979320;28;20026;-81
2022/01/12 08:20:35;;;;;;;17.08;9.80;;;1.00;99.90;;;;;;4980605;28;20037;-81
2022/01/12 08:23:00;;;;;;;19.30;9.88;;;1.10;99.90;;;;;;4999056;28;20057;-81
2022/01/12 08:25:26;;;;;;;15.10;9.18;;;1.10;99.90;;;;;;4977018;28;20026;-81
2022/01/12 08:27:52;;;;;;;18.98;9.30;;;1.10;99.90;;;;;;4991460;28;20023;-83
2022/01/12 08:30:21;;;;;;;19.38;9.68;;;1.10;99.90;;;;;;4977083;28;20133;-83
2022/01/12 08:32:50;;;;;;;21.08;10.60;;;1.10;99.90;;;;;;5000792;28;20464;-81
2022/01/12 08:35:17;;;;;;;18.90;10.18;;;1.20;99.90;;;;;;4981976;28;20471;-85
2022/01/12 08:37:43;;;;;;;22.25;10.52;;;1.20;99.90;;;;;;4999590;28;20038;-80
2022/01/12 08:40:10;;;;;;;18.77;9.68;;;1.20;99.90;;;;;;4979421;28;20035;-83
2022/01/12 08:42:36;;;;;;;16.67;9.55;;;1.30;99.90;;;;;;4980795;28;20030;-80
2022/01/12 08:45:03;;;;;;;19.08;10.20;;;1.30;99.90;;;;;;4978690;28;20026;-82
2022/01/12 08:47:31;;;;;;;19.35;10.40;;;2.20;99.90;;;;;;4980374;28;20022;-82
2022/01/12 08:49:57;;;;;;;18.73;10.15;;;1.40;99.90;;;;;;4986405;28;20656;-82
2022/01/12 08:52:24;;;;;;;17.02;9.50;;;1.50;99.90;;;;;;4985042;28;20034;-83
2022/01/12 08:54:50;;;;;;;19.23;10.32;;;1.50;99.90;;;;;;4985257;28;20125;-82
2022/01/12 08:57:16;;;;;;;17.10;8.60;;;1.50;99.90;;;;;;5001325;28;20058;-84
2022/01/12 08:59:44;;;;;;;14.98;8.55;;;1.50;99.90;;;;;;4985126;28;20041;-83
2022/01/12 09:02:11;;;;;;;15.15;8.77;;;;;;;;;;4998339;28;20586;-79
2022/01/12 09:04:37;;;;;;;16.30;9.10;;;1.70;99.90;;;;;;4977342;28;20391;-84
2022/01/12 09:07:03;;;;;;;13.70;8.07;;;1.80;99.90;;;;;;4999887;28;20102;-83
2022/01/12 09:09:30;;;;;;;17.15;8.65;;;1.90;99.90;;;;;;4984973;28;20110;-81
2022/01/12 09:11:56;;;;;;;16.27;8.45;;;2.80;99.90;;;;;;4998901;28;20046;-83
2022/01/12 09:14:22;;;;;;;16.02;8.75;;;3.20;99.90;;;;;;4982580;28;20042;-82
2022/01/12 09:16:55;;;;;;;22.90;8.95;;;1.80;99.90;;;;;;4986321;28;20042;-84
2022/01/12 09:19:22;;;;;;;15.20;8.73;;;2.00;99.90;;;;;;4985255;28;20030;-82
2022/01/12 09:21:48;;;;;;;16.05;9.38;;;2.10;99.90;;;;;;4985155;28;20093;-83
2022/01/12 09:24:14;;;;;;;16.52;9.15;;;2.40;99.90;;;;;;4985803;28;20105;-87
2022/01/12 09:26:40;;;;;;;14.25;8.43;;;2.20;99.90;;;;;;4968855;28;20050;-83
2022/01/12 09:29:06;;;;;;;18.55;9.50;;;2.20;99.90;;;;;;4982953;28;20030;-82
2022/01/12 09:31:32;;;;;;;15.52;8.68;;;2.10;99.90;;;;;;4981668;28;20032;-81
2022/01/12 09:33:58;;;;;;;16.42;9.25;;;2.20;99.90;;;;;;4983140;28;20082;-82
2022/01/12 09:36:23;;;;;;;15.02;8.60;;;2.30;99.90;;;;;;4979188;28;20057;-83
2022/01/12 09:38:50;;;;;;;17.20;8.90;;;2.40;99.90;;;;;;4977569;28;20054;-81
2022/01/12 09:41:16;;;;;;;14.57;8.38;;;2.20;99.90;;;;;;4976333;28;20094;-80
2022/01/12 09:43:42;;;;;;;20.88;9.15;;;2.50;99.90;;;;;;4972222;28;20061;-83
2022/01/12 09:46:10;;;;;;;16.17;9.02;;;3.20;99.90;;;;;;4974924;28;20022;-83
2022/01/12 09:48:36;;;;;;;12.88;7.38;;;2.60;99.90;;;;;;4977304;28;20109;-87
2022/01/12 09:51:04;;;;;;;14.35;8.02;;;4.00;99.90;;;;;;4992913;28;20050;-80
2022/01/12 09:53:32;;;;;;;11.55;7.28;;;2.70;99.90;;;;;;4976605;28;20026;-85
2022/01/12 09:55:59;;;;;;;13.82;7.75;;;2.60;99.90;;;;;;4982779;28;20058;-81
2022/01/12 09:58:34;;;;;;;15.68;7.85;;;4.40;99.90;;;;;;4981389;28;20026;-78
2022/01/12 10:01:02;;;;;;;13.35;7.35;;;2.80;99.90;;;;;;4976048;28;20133;-81
2022/01/12 10:03:28;;;;;;;15.52;8.02;;;4.60;99.90;;;;;;4988788;28;20042;-82
2022/01/12 10:05:54;;;;;;;14.40;7.25;;;2.90;99.90;;;;;;4985074;28;20387;-80
2022/01/12 10:08:20;;;;;;;11.98;6.97;;;3.00;99.90;;;;;;4992280;28;20043;-85
2022/01/12 10:11:07;;;;;;;13.70;7.82;;;4.60;99.90;;;;;;4976206;28;20026;-87
2022/01/12 10:13:37;;;;;;;12.35;7.57;;;3.20;99.90;;;;;;4975384;28;20073;-82
2022/01/12 10:16:17;;;;;;;14.85;8.20;;;3.20;99.90;;;;;;4974776;28;20510;-79
2022/01/12 10:18:47;;;;;;;14.25;8.07;;;3.20;99.90;;;;;;4988205;28;20034;-81
2022/01/12 10:21:26;;;;;;;13.77;7.40;;;3.20;99.90;;;;;;4977654;28;20022;-82
2022/01/12 10:24:00;;;;;;;10.77;6.60;;;3.30;99.90;;;;;;4976644;28;20112;-80
2022/01/12 10:26:37;;;;;;;13.60;7.78;;;3.40;99.90;;;;;;4993829;28;20034;-81
2022/01/12 10:29:16;;;;;;;12.55;6.53;;;3.40;99.90;;;;;;4993272;28;20022;-82
2022/01/12 10:31:45;;;;;;;13.80;7.25;;;3.50;99.90;;;;;;4977764;28;20408;-81
2022/01/12 10:34:11;;;;;;;11.52;6.38;;;3.60;99.90;;;;;;4977200;28;20097;-81
2022/01/12 10:36:42;;;;;;;9.18;5.60;;;3.60;99.90;;;;;;4980526;28;20641;-85
2022/01/12 10:39:11;;;;;;;9.77;5.70;;;3.60;99.90;;;;;;4968354;28;20062;-82
2022/01/12 10:41:54;;;;;;;11.70;6.10;;;3.60;99.90;;;;;;4972001;28;20033;-80
2022/01/12 10:44:22;;;;;;;12.43;6.47;;;3.50;99.90;;;;;;4992813;28;20029;-81
2022/01/12 10:46:48;;;;;;;9.60;5.75;;;3.60;99.90;;;;;;4974156;28;20057;-80
2022/01/12 10:49:19;;;;;;;12.73;6.22;;;3.60;99.90;;;;;;4977049;28;20511;-88
2022/01/12 10:51:54;;;;;;;10.88;5.50;;;3.70;99.90;;;;;;4987129;28;20711;-81
2022/01/12 10:54:20;;;;;;;11.18;5.75;;;4.70;99.90;;;;;;4974764;28;20049;-80
2022/01/12 10:56:46;;;;;;;10.68;6.30;;;3.90;99.90;;;;;;4983395;28;20151;-82
2022/01/12 10:59:16;;;;;;;10.02;5.95;;;3.90;99.90;;;;;;4972139;28;20030;-80
2022/01/12 11:01:43;;;;;;;10.52;5.75;;;3.90;99.90;;;;;;4965781;28;20058;-82
2022/01/12 11:04:10;;;;;;;10.13;5.57;;;3.90;99.90;;;;;;4974204;28;20054;-88
2022/01/12 11:06:35;;;;;;;11.02;6.53;;;3.90;99.90;;;;;;4970203;28;20026;-83
2022/01/12 11:09:01;;;;;;;11.00;5.82;;;3.80;99.90;;;;;;4971651;28;20547;-80
2022/01/12 11:11:28;;;;;;;10.85;6.05;;;3.90;99.90;;;;;;4972181;28;20072;-82
2022/01/12 11:13:55;;;;;;;9.68;5.80;;;4.00;99.90;;;;;;4974135;28;20034;-80
2022/01/12 11:16:26;;;;;;;9.18;5.53;;;4.00;99.90;;;;;;4992841;28;20046;-83
2022/01/12 11:18:52;;;;;;;;;;;4.70;99.90;;;;;;4946213;28;20506;-81
2022/01/12 11:21:21;;;;;;;9.30;5.10;;;4.20;99.90;;;;;;4975889;28;19972;-83
2022/01/12 11:23:47;;;;;;;8.90;5.55;;;4.40;99.90;;;;;;4976520;28;20247;-83
2022/01/12 11:26:16;;;;;;;10.68;5.20;;;4.30;99.90;;;;;;4979253;28;20045;-83
2022/01/12 11:28:43;;;;;;;8.48;5.15;;;4.30;99.90;;;;;;4974545;28;20031;-88
2022/01/12 11:31:09;;;;;;;8.43;5.50;;;4.20;99.90;;;;;;4978109;28;20135;-84
2022/01/12 11:33:40;;;;;;;8.77;5.30;;;4.20;99.90;;;;;;4980692;28;20030;-82
2022/01/12 11:36:13;;;;;;;9.52;5.15;;;4.20;99.90;;;;;;4996357;28;20026;-83
2022/01/12 11:38:39;;;;;;;11.88;6.47;;;4.40;99.90;;;;;;4995419;28;20128;-81
2022/01/12 11:41:15;;;;;;;8.32;5.07;;;5.60;99.90;;;;;;4979491;28;20038;-84
2022/01/12 11:44:03;;;;;;;9.77;5.75;;;5.10;99.90;;;;;;4994636;28;20038;-87
2022/01/12 11:46:40;;;;;;;8.55;5.07;;;4.40;99.90;;;;;;4981556;28;20105;-82
2022/01/12 11:49:06;;;;;;;8.13;5.20;;;4.50;99.90;;;;;;4993337;28;20018;-82
2022/01/12 11:51:34;;;;;;;8.35;5.35;;;5.20;99.90;;;;;;4981590;28;20027;-80
2022/01/12 11:54:08;;;;;;;11.30;5.97;;;5.40;99.90;;;;;;4999261;28;20022;-85
2022/01/12 11:56:34;;;;;;;7.78;4.72;;;4.70;99.90;;;;;;4996322;28;20113;-82
2022/01/12 11:59:09;;;;;;;7.55;4.85;;;4.90;99.90;;;;;;4979190;28;20023;-84
2022/01/12 12:01:50;;;;;;;8.07;4.90;;;4.80;99.90;;;;;;4979183;28;20030;-81
2022/01/12 12:04:30;;;;;;;8.77;4.75;;;4.90;99.90;;;;;;4985137;28;20015;-82
2022/01/12 12:07:30;;;;;;;7.15;4.32;;;4.90;99.90;;;;;;4995716;28;20026;-83
2022/01/12 12:09:58;;;;;;;6.13;3.90;;;4.80;99.90;;;;;;4994737;28;20034;-82
2022/01/12 12:12:28;;;;;;;8.00;4.80;;;4.80;99.90;;;;;;4994024;28;20085;-83
2022/01/12 12:14:57;;;;;;;9.93;5.80;;;4.90;99.90;;;;;;4975992;28;20062;-84
2022/01/12 12:17:25;;;;;;;8.20;4.72;;;5.00;99.90;;;;;;4996099;28;20363;-80
2022/01/12 12:19:52;;;;;;;8.75;5.22;;;5.00;99.90;;;;;;4977537;28;20022;-82
2022/01/12 12:22:29;;;;;;;9.02;4.78;;;5.10;99.90;;;;;;4977964;28;20026;-81
2022/01/12 12:25:01;;;;;;;7.57;4.50;;;5.10;99.90;;;;;;4976456;28;20022;-78
2022/01/12 12:27:29;;;;;;;8.07;5.03;;;5.10;99.90;;;;;;4977535;28;20045;-81
2022/01/12 12:30:39;;;;;;;8.48;4.82;;;5.10;99.90;;;;;;4977718;28;20109;-81
2022/01/12 12:33:28;;;;;;;9.07;5.47;;;5.00;99.90;;;;;;4989120;28;20038;-82
2022/01/12 12:39:19;;;;;;;8.95;5.32;;;4.90;99.90;;;;;;4981106;28;20106;-82
2022/01/12 12:41:53;;;;;;;9.90;5.28;;;3.70;99.90;;;;;;5000547;28;20041;-81
2022/01/12 12:44:29;;;;;;;10.48;5.53;;;5.20;99.90;;;;;;4996135;28;20555;-80
2022/01/12 12:47:06;;;;;;;9.15;5.30;;;4.90;99.90;;;;;;4998530;28;20050;-80
2022/01/12 12:49:34;;;;;;;9.57;5.28;;;5.20;99.90;;;;;;4996706;28;20514;-82
2022/01/12 12:52:54;;;;;;;8.82;5.35;;;5.40;99.90;;;;;;4998681;28;20041;-83
2022/01/12 12:56:15;;;;;;;8.57;4.97;;;5.10;99.90;;;;;;4933053;28;20258;-82
2022/01/12 12:58:43;;;;;;;10.05;5.13;;;5.30;99.90;;;;;;4949092;28;20042;-85
2022/01/12 13:01:15;;;;;;;8.77;5.18;;;7.70;99.90;;;;;;4974753;28;20407;-82
2022/01/12 13:03:49;;;;;;;8.75;5.30;;;5.30;99.90;;;;;;4992685;28;20030;-82
2022/01/12 13:06:27;;;;;;;8.23;4.97;;;5.30;99.90;;;;;;4991709;28;20023;-81
2022/01/12 13:08:58;;;;;;;9.25;5.32;;;5.20;99.90;;;;;;4991879;28;20048;-80
2022/01/12 13:11:32;;;;;;;10.43;5.65;;;5.80;99.90;;;;;;4977264;28;20054;-82
2022/01/12 13:14:01;;;;;;;9.77;5.25;;;5.40;99.90;;;;;;4996101;28;20038;-82
2022/01/12 13:16:27;;;;;;;9.43;5.63;;;5.40;99.90;;;;;;4990905;28;20484;-80
2022/01/12 13:19:07;;;;;;;9.95;5.30;;;5.40;99.90;;;;;;4992524;28;20037;-81
2022/01/12 13:21:35;;;;;;;9.18;5.13;;;5.50;99.90;;;;;;4989876;28;20480;-81
2022/01/12 13:25:03;;;;;;;8.82;4.75;;;5.50;99.90;;;;;;4977758;28;20518;-82
2022/01/12 13:27:35;;;;;;;10.02;5.13;;;5.00;99.90;;;;;;4977307;28;20058;-81
2022/01/12 13:30:02;;;;;;;7.93;4.53;;;5.40;99.90;;;;;;4993011;28;20053;-81
2022/01/12 13:32:28;;;;;;;7.63;4.40;;;5.30;99.90;;;;;;4991992;28;20018;-80
2022/01/12 13:34:59;;;;;;;9.90;5.03;;;5.00;99.90;;;;;;4993130;28;20045;-80
2022/01/12 13:37:25;;;;;;;8.88;5.07;;;5.30;99.90;;;;;;4976626;28;20108;-82
2022/01/12 13:40:09;;;;;;;9.00;5.00;;;5.50;99.90;;;;;;4979884;28;20495;-83
2022/01/12 13:42:56;;;;;;;7.18;4.30;;;5.00;99.90;;;;;;4993012;28;20037;-83
2022/01/12 13:45:36;;;;;;;9.00;5.20;;;5.40;99.90;;;;;;4993313;28;20129;-83
2022/01/12 13:48:16;;;;;;;7.85;5.03;;;5.40;99.90;;;;;;4975953;28;20031;-81
2022/01/12 13:50:45;;;;;;;8.55;4.20;;;6.80;99.90;;;;;;4991259;28;20026;-80
2022/01/12 13:53:11;;;;;;;8.45;4.82;;;5.50;99.90;;;;;;4975201;28;20034;-82
2022/01/12 13:55:51;;;;;;;7.22;4.68;;;5.40;99.90;;;;;;4975679;28;20037;-81
2022/01/12 13:58:17;;;;;;;8.13;4.38;;;5.50;99.90;;;;;;4977667;28;20026;-81
2022/01/12 14:00:44;;;;;;;9.10;4.50;;;5.50;99.90;;;;;;4977980;28;20040;-84
2022/01/12 14:03:19;;;;;;;6.80;3.95;;;5.50;99.90;;;;;;4977859;28;20030;-81
2022/01/12 14:05:46;;;;;;;7.35;4.40;;;5.50;99.90;;;;;;4976330;28;20057;-82
2022/01/12 14:08:16;;;;;;;9.48;4.55;;;5.60;99.90;;;;;;4992136;28;20082;-81
2022/01/12 14:10:52;;;;;;;7.57;4.65;;;5.60;99.90;;;;;;4977464;28;20302;-85
2022/01/12 14:13:26;;;;;;;7.80;4.63;;;5.60;99.90;;;;;;4990077;28;20028;-79
2022/01/12 14:15:52;;;;;;;7.78;4.93;;;5.60;99.90;;;;;;4976624;28;20026;-80
2022/01/12 14:18:18;;;;;;;6.97;4.60;;;6.20;99.90;;;;;;4974412;28;20180;-81
2022/01/12 14:20:46;;;;;;;7.90;4.55;;;5.50;99.90;;;;;;4981233;28;20061;-79
2022/01/12 14:23:12;;;;;;;9.27;5.43;;;5.40;99.90;;;;;;4981123;28;20117;-79
2022/01/12 14:25:40;;;;;;;9.23;5.28;;;5.40;99.90;;;;;;4980339;28;20121;-83
2022/01/12 14:28:27;;;;;;;10.35;6.20;;;5.40;99.90;;;;;;4983558;28;20054;-82